Charlesbourg, Canada
Current Conditions -  °F | °C
As of 8:00 AM on Thursday 23 Oct 2014 (Local Time) from CYQB Reporting Station
Rain Showers Rain Showers  
Wind Chill: 34°   Ceiling: 4800
Heat Index: 43°   Visibility: 30mi
Dew Point: 37°   Wind: 20mph
Humidity: 81%   Direction: 60°ENE
Pressure: 30.18"   Gusts: 26mph
Location:  46.86°N, 71.27°W
Report Text: CYQB 231200Z 06017G23KT 30SM -SHRA FEW025 BKN048 OVC063 06/03 A3018 RMK SC2SC3SC3 VIS LWR NW SLP222
Loading
Personal Weather Stations






























Interactive Weather Map
Tropical Storm Tracking
New forecast layout! Learn more

10-Day Weather Forecast

Advertisements
Track Severe Weather on mobile